Time;durP1;ratioP1;P1;durP2;ratioP2;P2;SDS_P1;SDS_P2;PMS_P1;PMS_P2;Temp;Humidity;BMP_temperature;BMP_pressure;BME280_temperature;BME280_humidity;BME280_pressure;Samples;Min_cycle;Max_cycle;Signal;HPM_P1;HPM_P2
2022/01/21 00:00:22;;;;;;;6.70;2.67;;;1.20;99.90;;;;;;4978880;28;20197;-81
2022/01/21 00:02:48;;;;;;;13.83;3.40;;;1.20;99.90;;;;;;4995177;28;20190;-82
2022/01/21 00:05:14;;;;;;;11.23;2.80;;;1.20;99.90;;;;;;4995528;28;20762;-82
2022/01/21 00:07:39;;;;;;;9.70;3.13;;;1.20;99.90;;;;;;4978852;28;20196;-80
2022/01/21 00:10:07;;;;;;;10.73;3.40;;;1.20;99.90;;;;;;4977766;28;20219;-81
2022/01/21 00:12:34;;;;;;;8.15;2.60;;;1.20;99.90;;;;;;4993899;28;20190;-80
2022/01/21 00:15:00;;;;;;;8.48;3.40;;;1.20;99.90;;;;;;4991390;28;20210;-81
2022/01/21 00:17:25;;;;;;;7.33;2.53;;;1.20;99.90;;;;;;4990155;28;20652;-80
2022/01/21 00:30:03;;;;;;;10.03;3.17;;;1.10;99.90;;;;;;4973581;28;20225;-80
2022/01/21 00:30:49;;;;;;;11.93;3.03;;;1.10;99.90;;;;;;4989752;28;20333;-81
2022/01/21 00:33:15;;;;;;;7.70;3.33;;;1.10;99.90;;;;;;4992849;28;20265;-82
2022/01/21 00:35:40;;;;;;;12.00;2.70;;;1.10;99.90;;;;;;4977443;28;20206;-80
2022/01/21 00:38:06;;;;;;;8.23;3.60;;;1.00;99.90;;;;;;4976879;28;20198;-79
2022/01/21 00:40:33;;;;;;;7.10;2.70;;;1.00;99.90;;;;;;4976707;28;20195;-79
2022/01/21 00:45:43;;;;;;;9.38;2.40;;;1.00;99.90;;;;;;4994927;28;20234;-81
2022/01/21 00:48:09;;;;;;;7.00;3.33;;;0.90;99.90;;;;;;4976458;28;20191;-81
2022/01/21 00:50:35;;;;;;;7.17;3.17;;;0.90;99.90;;;;;;4991419;28;20475;-82
2022/01/21 00:53:01;;;;;;;15.33;5.80;;;0.90;99.90;;;;;;4957779;28;20209;-81
2022/01/21 00:55:28;;;;;;;9.85;3.70;;;1.00;99.90;;;;;;4992156;28;20202;-80
2022/01/21 00:57:53;;;;;;;8.77;3.20;;;1.00;99.90;;;;;;4992647;28;20553;-80
2022/01/21 01:00:19;;;;;;;12.20;2.50;;;1.00;99.90;;;;;;4975978;28;20244;-79
2022/01/21 01:02:45;;;;;;;24.83;6.73;;;1.00;99.90;;;;;;4992620;28;20245;-80
2022/01/21 01:05:12;;;;;;;11.23;5.50;;;1.00;99.90;;;;;;4976908;28;20448;-83
2022/01/21 01:07:38;;;;;;;13.73;4.05;;;1.00;99.90;;;;;;4977031;28;20308;-80
2022/01/21 01:10:06;;;;;;;6.23;2.60;;;1.00;99.90;;;;;;4993207;28;20333;-79
2022/01/21 01:12:58;;;;;;;13.20;3.28;;;0.90;99.90;;;;;;4993503;28;20427;-79
2022/01/21 01:21:02;;;;;;;8.75;3.25;;;0.90;99.90;;;;;;4980956;28;20198;-80
2022/01/21 01:23:39;;;;;;;5.37;2.40;;;0.80;99.90;;;;;;4993399;28;20193;-76
2022/01/21 01:28:49;;;;;;;18.10;2.55;;;0.80;99.90;;;;;;4994427;28;20248;-79
2022/01/21 01:31:15;;;;;;;10.83;2.97;;;0.80;99.90;;;;;;4990949;28;20778;-81
2022/01/21 01:33:41;;;;;;;7.63;2.23;;;0.80;99.90;;;;;;4975503;28;20648;-80
2022/01/21 01:36:08;;;;;;;3.28;2.10;;;0.80;99.90;;;;;;4973260;28;20285;-78
2022/01/21 01:41:09;;;;;;;7.60;2.28;;;0.80;99.90;;;;;;4972538;28;20186;-81
2022/01/21 01:51:58;;;;;;;15.88;3.17;;;1.00;99.90;;;;;;4987896;28;20201;-81
2022/01/21 01:54:25;;;;;;;3.75;2.15;;;0.90;99.90;;;;;;4987907;28;20270;-79
2022/01/21 01:56:55;;;;;;;11.20;3.22;;;0.90;99.90;;;;;;4988572;28;20191;-80
2022/01/21 01:59:21;;;;;;;7.30;2.67;;;0.90;99.90;;;;;;4973806;28;20198;-79
2022/01/21 02:02:00;;;;;;;6.00;2.40;;;0.80;99.90;;;;;;4989209;28;20182;-79
2022/01/21 02:04:26;;;;;;;9.20;2.70;;;0.80;99.90;;;;;;4988829;28;20188;-79
2022/01/21 02:06:52;;;;;;;9.13;2.40;;;0.80;99.90;;;;;;4989387;28;20198;-79
2022/01/21 02:09:18;;;;;;;14.15;2.33;;;0.80;99.90;;;;;;4989449;28;20310;-79
2022/01/21 02:11:44;;;;;;;13.03;2.50;;;0.80;99.90;;;;;;4973087;28;20278;-78
2022/01/21 02:14:15;;;;;;;6.87;2.10;;;0.80;99.90;;;;;;4989360;28;21009;-78
2022/01/21 02:22:13;;;;;;;6.25;2.10;;;0.80;99.90;;;;;;4990703;28;20243;-80
2022/01/21 02:24:55;;;;;;;5.35;2.00;;;0.90;99.90;;;;;;4989058;28;20647;-79
2022/01/21 02:27:21;;;;;;;6.65;2.03;;;0.90;99.90;;;;;;4978437;28;20273;-79
2022/01/21 02:29:49;;;;;;;4.20;1.63;;;0.90;99.90;;;;;;4978214;28;20802;-79
2022/01/21 02:32:17;;;;;;;11.60;2.15;;;1.10;99.90;;;;;;4995105;28;20421;-79
2022/01/21 02:34:45;;;;;;;6.78;1.95;;;0.90;99.90;;;;;;4995054;28;20240;-80
2022/01/21 02:37:13;;;;;;;7.05;2.25;;;0.90;99.90;;;;;;4978615;28;20579;-79
2022/01/21 02:39:38;;;;;;;7.32;2.10;;;0.90;99.90;;;;;;4978690;28;20194;-80
2022/01/21 02:42:04;;;;;;;10.13;1.77;;;0.90;99.90;;;;;;4979087;28;20197;-79
2022/01/21 02:44:30;;;;;;;12.98;2.08;;;1.00;99.90;;;;;;4991301;28;20575;-80
2022/01/21 02:46:58;;;;;;;5.63;2.10;;;0.90;99.90;;;;;;4991058;28;20198;-80
2022/01/21 02:49:25;;;;;;;8.02;2.05;;;1.00;99.90;;;;;;4974599;28;20636;-81
2022/01/21 02:51:52;;;;;;;13.18;2.30;;;0.90;99.90;;;;;;4958948;28;20202;-80
2022/01/21 02:54:18;;;;;;;2.28;2.10;;;0.90;99.90;;;;;;4992017;28;20193;-80
2022/01/21 02:56:44;;;;;;;5.03;1.90;;;1.00;99.90;;;;;;4994412;28;20688;-80
2022/01/21 02:59:10;;;;;;;9.50;2.50;;;1.00;99.90;;;;;;4993155;28;20429;-81
2022/01/21 03:01:37;;;;;;;15.13;2.97;;;1.00;99.90;;;;;;4960507;28;20653;-80
2022/01/21 03:04:05;;;;;;;8.10;2.20;;;0.90;99.90;;;;;;4994629;28;20568;-80
2022/01/21 03:06:31;;;;;;;7.38;2.20;;;0.90;99.90;;;;;;4993031;28;20253;-79
2022/01/21 03:08:58;;;;;;;7.15;1.90;;;0.90;99.90;;;;;;4993954;28;20239;-78
2022/01/21 03:11:26;;;;;;;9.48;2.53;;;1.00;99.90;;;;;;4991480;28;20182;-79
2022/01/21 03:13:53;;;;;;;8.95;2.13;;;0.90;99.90;;;;;;4975321;28;20209;-79
2022/01/21 03:16:19;;;;;;;10.45;2.63;;;0.90;99.90;;;;;;4975719;28;20218;-79
2022/01/21 03:18:44;;;;;;;6.80;2.27;;;0.90;99.90;;;;;;4991817;28;20188;-79
2022/01/21 03:21:15;;;;;;;11.00;2.57;;;0.90;99.90;;;;;;4991466;28;20425;-80
2022/01/21 03:23:43;;;;;;;4.88;1.50;;;0.80;99.90;;;;;;4992221;28;20187;-80
2022/01/21 03:26:09;;;;;;;4.80;1.88;;;0.90;99.90;;;;;;4991375;28;20213;-79
2022/01/21 03:28:35;;;;;;;8.60;2.40;;;1.00;99.90;;;;;;4975162;28;20190;-80
2022/01/21 03:31:01;;;;;;;8.57;2.80;;;0.90;99.90;;;;;;4974330;28;21085;-80
2022/01/21 03:33:26;;;;;;;7.40;2.13;;;1.10;99.90;;;;;;4974649;28;20281;-81
2022/01/21 03:35:53;;;;;;;6.67;2.50;;;0.90;99.90;;;;;;4989809;28;20569;-81
2022/01/21 03:38:20;;;;;;;9.10;2.67;;;0.80;99.90;;;;;;4975736;28;20185;-79
2022/01/21 03:40:47;;;;;;;7.78;2.00;;;0.90;99.90;;;;;;4992216;28;20284;-80
2022/01/21 03:43:12;;;;;;;10.68;2.67;;;0.80;99.90;;;;;;4992795;28;20558;-78
2022/01/21 03:45:39;;;;;;;8.77;2.17;;;0.80;99.90;;;;;;4996535;28;20216;-79
2022/01/21 03:48:05;;;;;;;8.63;2.38;;;0.80;99.90;;;;;;4982196;28;20190;-80
2022/01/21 03:50:32;;;;;;;9.15;2.25;;;0.80;99.90;;;;;;5001859;28;20682;-79
2022/01/21 03:53:02;;;;;;;4.93;2.20;;;0.90;99.90;;;;;;4996288;28;20353;-78
2022/01/21 03:55:30;;;;;;;5.93;2.85;;;0.80;99.90;;;;;;4992569;28;20224;-79
2022/01/21 03:57:56;;;;;;;12.88;2.38;;;0.80;99.90;;;;;;4995828;28;20185;-79
2022/01/21 04:00:27;;;;;;;14.73;2.67;;;0.80;99.90;;;;;;4981372;28;20201;-79
2022/01/21 04:02:53;;;;;;;11.23;2.30;;;0.80;99.90;;;;;;4997293;28;20186;-78
2022/01/21 04:05:19;;;;;;;5.70;2.13;;;0.80;99.90;;;;;;4980364;28;20220;-78
2022/01/21 04:07:45;;;;;;;6.88;1.77;;;0.90;99.90;;;;;;4998198;28;20194;-78
2022/01/21 04:10:11;;;;;;;9.93;2.37;;;0.80;99.90;;;;;;4980143;28;20290;-79
2022/01/21 04:12:37;;;;;;;7.70;2.50;;;0.80;99.90;;;;;;4997148;28;20429;-79
2022/01/21 04:15:03;;;;;;;10.57;2.30;;;0.80;99.90;;;;;;4980765;28;20444;-78
2022/01/21 04:17:29;;;;;;;11.20;2.10;;;0.80;99.90;;;;;;4996190;28;20496;-80
2022/01/21 04:19:55;;;;;;;5.67;2.13;;;0.80;99.90;;;;;;4979025;28;20655;-79
2022/01/21 04:22:21;;;;;;;8.97;3.60;;;0.80;99.90;;;;;;4991127;28;20631;-79
2022/01/21 04:24:49;;;;;;;5.28;2.47;;;0.80;99.90;;;;;;4990087;28;20457;-78
2022/01/21 04:27:16;;;;;;;13.73;3.20;;;0.80;99.90;;;;;;4990327;28;20673;-78
2022/01/21 04:29:41;;;;;;;23.25;4.10;;;0.80;99.90;;;;;;4991791;28;20221;-76
2022/01/21 04:32:08;;;;;;;4.97;2.03;;;0.80;99.90;;;;;;4995178;28;20182;-77
2022/01/21 04:34:34;;;;;;;6.57;3.05;;;0.80;99.90;;;;;;4990759;28;20664;-77
2022/01/21 04:37:01;;;;;;;7.13;2.10;;;0.80;99.90;;;;;;4990878;28;20228;-77
2022/01/21 04:39:32;;;;;;;6.22;2.50;;;0.80;99.90;;;;;;4988673;28;20517;-77
2022/01/21 04:47:27;;;;;;;8.35;3.40;;;0.70;99.90;;;;;;4990043;28;20735;-80
2022/01/21 04:49:53;;;;;;;7.63;2.90;;;0.70;99.90;;;;;;4993081;28;20224;-79
2022/01/21 04:52:19;;;;;;;9.20;3.53;;;0.70;99.90;;;;;;4997520;28;20195;-79
2022/01/21 04:54:45;;;;;;;9.75;2.90;;;0.60;99.90;;;;;;4991388;28;20202;-79
2022/01/21 04:57:11;;;;;;;11.95;3.60;;;0.60;99.90;;;;;;4989900;28;20187;-78
2022/01/21 04:59:39;;;;;;;7.87;2.30;;;0.50;99.90;;;;;;4976627;28;20969;-78
2022/01/21 05:02:06;;;;;;;12.98;3.05;;;0.50;99.90;;;;;;4991267;28;20366;-78
2022/01/21 05:04:31;;;;;;;11.48;3.03;;;0.60;99.90;;;;;;4995352;28;20202;-79
2022/01/21 05:06:58;;;;;;;10.70;3.40;;;0.50;99.90;;;;;;4992764;28;20187;-79
2022/01/21 05:09:30;;;;;;;14.30;3.20;;;0.60;99.90;;;;;;4977731;28;20504;-80
2022/01/21 05:11:56;;;;;;;10.98;3.15;;;0.70;99.90;;;;;;4979416;28;20182;-77
2022/01/21 05:14:26;;;;;;;7.65;2.90;;;0.70;99.90;;;;;;4992150;28;20726;-80
2022/01/21 05:17:01;;;;;;;2.55;2.10;;;0.60;99.90;;;;;;4978934;28;20613;-80
2022/01/21 05:19:26;;;;;;;12.05;3.30;;;0.80;99.90;;;;;;4976667;28;20173;-77
2022/01/21 05:21:52;;;;;;;9.77;2.70;;;0.70;99.90;;;;;;4990710;28;20244;-76
2022/01/21 05:24:20;;;;;;;8.87;4.27;;;0.60;99.90;;;;;;4990520;28;20229;-77
2022/01/21 05:26:53;;;;;;;10.50;2.95;;;0.60;99.90;;;;;;4989496;28;20440;-77
2022/01/21 05:29:20;;;;;;;5.95;2.40;;;0.60;99.90;;;;;;4989934;28;20189;-76
2022/01/21 05:31:47;;;;;;;9.05;3.20;;;0.60;99.90;;;;;;4989679;28;20191;-77
2022/01/21 05:34:13;;;;;;;12.68;3.05;;;0.70;99.90;;;;;;4971780;28;20607;-76
2022/01/21 05:36:40;;;;;;;10.03;2.77;;;0.60;99.90;;;;;;4988342;28;20240;-76
2022/01/21 05:39:10;;;;;;;7.45;3.20;;;0.60;99.90;;;;;;4988146;28;20183;-76
2022/01/21 05:41:36;;;;;;;7.07;3.20;;;0.70;99.90;;;;;;4988155;28;20225;-76
2022/01/21 05:44:08;;;;;;;8.00;3.83;;;0.60;99.90;;;;;;4987793;28;20178;-76
2022/01/21 05:46:54;;;;;;;9.15;3.13;;;0.60;99.90;;;;;;4987821;28;20264;-76
2022/01/21 05:49:20;;;;;;;11.02;3.13;;;0.60;99.90;;;;;;4986554;28;20184;-76
2022/01/21 05:51:46;;;;;;;4.50;3.00;;;0.60;99.90;;;;;;4985979;28;20213;-76
2022/01/21 05:54:13;;;;;;;7.47;3.43;;;0.60;99.90;;;;;;4987849;28;20195;-76
2022/01/21 05:56:39;;;;;;;8.73;3.53;;;0.70;99.90;;;;;;4985999;28;20272;-76
2022/01/21 05:59:06;;;;;;;11.43;3.47;;;0.70;99.90;;;;;;4988656;28;20199;-76
2022/01/21 06:01:33;;;;;;;10.23;3.70;;;0.70;99.90;;;;;;4991426;28;20196;-76
2022/01/21 06:04:00;;;;;;;9.77;3.70;;;0.60;99.90;;;;;;4991238;28;20202;-76
2022/01/21 06:06:26;;;;;;;8.82;3.33;;;0.60;99.90;;;;;;4991110;28;20203;-76
2022/01/21 06:08:52;;;;;;;7.40;3.70;;;0.70;99.90;;;;;;4991276;28;20209;-76
2022/01/21 06:11:17;;;;;;;16.00;4.13;;;0.70;99.90;;;;;;4973567;28;20249;-76
2022/01/21 06:13:46;;;;;;;18.13;3.83;;;0.80;99.90;;;;;;4991015;28;20272;-76
2022/01/21 06:16:11;;;;;;;11.45;4.10;;;0.70;99.90;;;;;;4991015;28;20201;-76
2022/01/21 06:18:37;;;;;;;9.17;4.10;;;0.70;99.90;;;;;;4989937;28;20273;-76
2022/01/21 06:21:03;;;;;;;6.00;3.97;;;0.70;99.90;;;;;;4973463;28;20196;-76
2022/01/21 06:23:29;;;;;;;9.33;4.30;;;0.70;99.90;;;;;;4991579;28;20218;-76
2022/01/21 06:25:54;;;;;;;14.27;4.60;;;0.80;99.90;;;;;;4991515;28;20937;-77
2022/01/21 06:28:21;;;;;;;12.87;5.07;;;0.70;99.90;;;;;;4991576;28;20186;-76
2022/01/21 06:30:49;;;;;;;12.10;4.00;;;0.70;99.90;;;;;;4992692;28;20970;-75
2022/01/21 06:33:15;;;;;;;11.68;3.60;;;0.70;99.90;;;;;;4991572;28;20712;-76
2022/01/21 06:35:40;;;;;;;17.40;4.57;;;0.70;99.90;;;;;;4991299;28;20309;-76
2022/01/21 06:38:06;;;;;;;12.00;4.63;;;0.70;99.90;;;;;;4989973;28;20444;-76
2022/01/21 06:40:32;;;;;;;8.13;3.70;;;0.70;99.90;;;;;;4991253;28;20422;-76
2022/01/21 06:43:02;;;;;;;10.73;4.90;;;0.70;99.90;;;;;;4991290;28;20242;-76
2022/01/21 06:45:28;;;;;;;7.10;3.70;;;0.70;99.90;;;;;;4991229;28;21134;-76
2022/01/21 06:47:54;;;;;;;14.23;3.83;;;0.80;99.90;;;;;;4990316;28;20647;-76
2022/01/21 06:50:20;;;;;;;11.00;5.10;;;0.70;99.90;;;;;;4991640;28;20224;-76
2022/01/21 06:52:45;;;;;;;12.23;3.73;;;0.70;99.90;;;;;;4990147;28;20243;-76
2022/01/21 06:55:11;;;;;;;11.70;6.10;;;0.80;99.90;;;;;;4991747;28;20212;-75
2022/01/21 06:57:39;;;;;;;9.33;4.50;;;0.70;99.90;;;;;;4990489;28;20182;-76
2022/01/21 07:00:10;;;;;;;19.75;6.28;;;0.80;99.90;;;;;;4974463;28;20277;-76
2022/01/21 07:02:36;;;;;;;17.60;5.97;;;0.70;99.90;;;;;;4975398;28;20703;-77
2022/01/21 07:05:04;;;;;;;12.67;4.53;;;0.70;99.90;;;;;;4992225;28;20238;-76
2022/01/21 07:07:30;;;;;;;11.02;5.72;;;0.70;99.90;;;;;;4992574;28;20420;-77
2022/01/21 07:09:56;;;;;;;9.15;5.60;;;0.70;99.90;;;;;;4992205;28;20209;-77
2022/01/21 07:12:22;;;;;;;14.40;5.27;;;0.70;99.90;;;;;;4991442;28;20257;-77
2022/01/21 07:14:48;;;;;;;17.90;5.03;;;0.70;99.90;;;;;;4990406;28;21090;-77
2022/01/21 07:17:13;;;;;;;10.60;4.30;;;0.70;99.90;;;;;;4990431;28;20449;-76
2022/01/21 07:19:39;;;;;;;15.50;4.70;;;0.70;99.90;;;;;;4989888;28;20735;-77
2022/01/21 07:22:05;;;;;;;10.87;4.40;;;0.70;99.90;;;;;;4989031;28;20256;-76
2022/01/21 07:24:31;;;;;;;17.50;4.10;;;0.70;99.90;;;;;;4989060;28;20990;-77
2022/01/21 07:26:57;;;;;;;13.23;3.60;;;0.70;99.90;;;;;;4990461;28;20202;-77
2022/01/21 07:29:23;;;;;;;11.70;3.70;;;0.70;99.90;;;;;;4990317;28;20225;-77
2022/01/21 07:31:53;;;;;;;19.07;3.87;;;0.70;99.90;;;;;;4989026;28;20479;-76
2022/01/21 07:34:19;;;;;;;11.73;4.13;;;0.70;99.90;;;;;;4973093;28;20256;-77
2022/01/21 07:36:46;;;;;;;13.10;3.67;;;0.70;99.90;;;;;;4990346;28;20190;-76
2022/01/21 07:39:11;;;;;;;13.55;4.95;;;0.80;99.90;;;;;;4991263;28;20648;-75
2022/01/21 07:41:37;;;;;;;15.43;4.57;;;0.80;99.90;;;;;;4991416;28;20293;-77
2022/01/21 07:44:03;;;;;;;12.13;4.20;;;0.80;99.90;;;;;;4989766;28;20211;-77
2022/01/21 07:46:29;;;;;;;10.93;3.80;;;0.80;99.90;;;;;;4990872;28;20284;-77
2022/01/21 07:48:56;;;;;;;13.00;3.95;;;0.80;99.90;;;;;;4990523;28;20182;-77
2022/01/21 07:51:22;;;;;;;17.10;5.25;;;0.90;99.90;;;;;;4990471;28;20782;-77
2022/01/21 07:53:48;;;;;;;11.90;5.30;;;0.90;99.90;;;;;;4990539;28;20294;-77
2022/01/21 07:56:14;;;;;;;15.30;4.97;;;0.80;99.90;;;;;;4990536;28;20231;-77
2022/01/21 07:58:40;;;;;;;17.77;5.22;;;0.90;99.90;;;;;;4990833;28;20178;-77
2022/01/21 08:01:06;;;;;;;9.20;4.67;;;0.90;99.90;;;;;;4990552;28;20220;-77
2022/01/21 08:03:31;;;;;;;16.43;5.17;;;0.90;99.90;;;;;;4990474;28;20431;-77
2022/01/21 08:05:57;;;;;;;9.80;4.43;;;0.90;99.90;;;;;;4988898;28;21008;-75
2022/01/21 08:08:24;;;;;;;15.23;5.23;;;0.90;99.90;;;;;;4990309;28;20698;-77
2022/01/21 08:10:50;;;;;;;15.68;4.97;;;1.00;99.90;;;;;;4990066;28;20465;-77
2022/01/21 08:13:15;;;;;;;13.47;5.23;;;1.10;99.90;;;;;;4990341;28;20182;-77
2022/01/21 08:15:41;;;;;;;11.83;4.10;;;1.10;99.90;;;;;;4990268;28;20198;-77
2022/01/21 08:18:07;;;;;;;13.23;5.07;;;1.10;99.90;;;;;;4988803;28;20183;-77
2022/01/21 08:20:32;;;;;;;14.60;5.33;;;1.10;99.90;;;;;;4988517;28;20194;-77
2022/01/21 08:22:58;;;;;;;22.37;5.00;;;1.20;99.90;;;;;;4987488;28;20222;-77
2022/01/21 08:25:24;;;;;;;13.73;4.50;;;1.20;99.90;;;;;;4988088;28;20220;-77
2022/01/21 08:27:50;;;;;;;14.70;4.37;;;1.20;99.90;;;;;;4990064;28;20187;-77
2022/01/21 08:30:16;;;;;;;18.10;4.77;;;1.20;99.90;;;;;;4988220;28;20209;-77
2022/01/21 08:32:42;;;;;;;16.75;4.60;;;1.30;99.90;;;;;;4990010;28;20269;-77
2022/01/21 08:35:09;;;;;;;12.03;4.23;;;1.30;99.90;;;;;;4988727;28;20263;-77
2022/01/21 08:37:35;;;;;;;9.55;4.40;;;1.30;99.90;;;;;;4988869;28;20998;-78
2022/01/21 08:40:01;;;;;;;16.92;5.80;;;1.40;99.90;;;;;;4988663;28;20274;-78
2022/01/21 08:42:27;;;;;;;16.42;4.93;;;1.40;99.90;;;;;;4988899;28;20193;-78
2022/01/21 08:44:52;;;;;;;9.30;4.40;;;1.40;99.90;;;;;;4989665;28;20256;-78
2022/01/21 08:47:20;;;;;;;14.70;4.20;;;1.50;99.90;;;;;;4990454;28;20182;-77
2022/01/21 08:49:48;;;;;;;9.40;4.35;;;1.50;99.90;;;;;;4990424;28;20223;-77
2022/01/21 08:52:20;;;;;;;17.15;5.07;;;1.50;99.90;;;;;;4990021;28;20294;-77
2022/01/21 08:54:49;;;;;;;9.70;3.55;;;1.40;99.90;;;;;;4988508;28;20212;-77
2022/01/21 08:57:16;;;;;;;6.63;4.35;;;1.50;99.90;;;;;;4990975;28;20229;-78
2022/01/21 08:59:42;;;;;;;10.50;3.85;;;1.40;99.90;;;;;;4991374;28;20205;-76
2022/01/21 09:02:08;;;;;;;7.97;3.70;;;1.50;99.90;;;;;;4991415;28;20607;-78
2022/01/21 09:04:34;;;;;;;11.43;3.33;;;1.40;99.90;;;;;;4991884;28;20190;-77
2022/01/21 09:06:59;;;;;;;9.47;3.60;;;1.50;99.90;;;;;;4973165;28;20548;-77
2022/01/21 09:09:25;;;;;;;11.90;3.90;;;1.50;99.90;;;;;;4989678;28;20194;-78
2022/01/21 09:11:59;;;;;;;11.33;3.83;;;1.40;99.90;;;;;;4990087;28;20186;-78
2022/01/21 09:14:25;;;;;;;12.73;4.35;;;1.40;99.90;;;;;;4991283;28;20174;-78
2022/01/21 09:16:52;;;;;;;12.37;4.20;;;1.40;99.90;;;;;;4990695;28;20193;-78
2022/01/21 09:19:17;;;;;;;8.95;3.88;;;1.40;99.90;;;;;;4974488;28;20468;-78
2022/01/21 09:21:45;;;;;;;8.57;3.63;;;1.50;99.90;;;;;;4991247;28;20222;-77
2022/01/21 09:24:11;;;;;;;10.25;3.78;;;1.50;99.90;;;;;;4989732;28;20179;-78
2022/01/21 09:26:37;;;;;;;9.77;3.95;;;1.60;99.90;;;;;;4989573;28;20218;-77
2022/01/21 09:29:05;;;;;;;15.27;4.27;;;1.60;99.90;;;;;;4990271;28;20605;-77
2022/01/21 09:31:31;;;;;;;12.23;4.70;;;1.70;99.90;;;;;;4988870;28;20487;-77
2022/01/21 09:33:57;;;;;;;14.45;4.25;;;1.70;99.90;;;;;;4991942;28;20186;-77
2022/01/21 09:36:23;;;;;;;14.90;4.33;;;1.70;99.90;;;;;;4993098;28;20221;-78
2022/01/21 09:38:49;;;;;;;12.53;4.17;;;1.70;99.90;;;;;;4993705;28;20437;-77
2022/01/21 09:41:17;;;;;;;10.17;4.43;;;1.80;99.90;;;;;;4994757;28;20422;-78
2022/01/21 09:43:48;;;;;;;11.38;4.30;;;1.80;99.90;;;;;;4993280;28;20197;-77
2022/01/21 09:46:14;;;;;;;15.63;4.68;;;1.80;99.90;;;;;;4992885;28;20209;-77
2022/01/21 09:48:54;;;;;;;9.18;4.20;;;1.90;99.90;;;;;;4992960;28;20186;-77
2022/01/21 09:51:19;;;;;;;9.50;4.40;;;1.90;99.90;;;;;;4991645;28;20302;-77
2022/01/21 09:53:46;;;;;;;5.60;4.27;;;1.90;99.90;;;;;;4991714;28;20226;-77
2022/01/21 09:56:14;;;;;;;11.52;4.15;;;1.90;99.90;;;;;;4993205;28;20206;-77
2022/01/21 09:58:43;;;;;;;18.80;5.35;;;1.90;99.90;;;;;;4993029;28;20599;-77
2022/01/21 10:01:09;;;;;;;13.43;4.80;;;1.90;99.90;;;;;;4994521;28;20659;-78
2022/01/21 10:03:35;;;;;;;7.82;4.07;;;2.00;99.90;;;;;;4993946;28;20194;-78
2022/01/21 10:06:02;;;;;;;12.38;4.07;;;2.00;99.90;;;;;;4993008;28;20218;-77
2022/01/21 10:08:29;;;;;;;13.23;4.30;;;2.10;99.90;;;;;;4991205;28;20198;-76
2022/01/21 10:10:54;;;;;;;10.75;4.50;;;2.10;99.90;;;;;;4990101;28;20210;-77
2022/01/21 10:13:20;;;;;;;13.03;4.50;;;2.20;99.90;;;;;;4989725;28;20183;-77
2022/01/21 10:15:48;;;;;;;12.55;4.80;;;2.30;99.90;;;;;;4990984;28;20207;-77
2022/01/21 10:18:19;;;;;;;11.77;5.10;;;2.40;99.90;;;;;;4990695;28;20187;-77
2022/01/21 10:21:05;;;;;;;14.38;4.10;;;2.50;99.90;;;;;;4989133;28;20601;-77
2022/01/21 10:23:34;;;;;;;7.53;3.58;;;2.60;99.90;;;;;;4989035;28;20193;-76
2022/01/21 10:26:08;;;;;;;10.00;3.72;;;2.70;99.90;;;;;;4990335;28;20217;-76
2022/01/21 10:28:35;;;;;;;9.63;4.20;;;2.90;99.90;;;;;;4990297;28;20210;-75
2022/01/21 10:31:14;;;;;;;9.73;4.03;;;2.90;99.90;;;;;;4990090;28;20214;-76
2022/01/21 10:33:51;;;;;;;10.10;4.07;;;3.00;99.90;;;;;;4990219;28;20183;-75
2022/01/21 10:36:34;;;;;;;13.40;4.10;;;3.10;99.90;;;;;;4988970;28;20221;-76
2022/01/21 10:39:13;;;;;;;25.00;3.67;;;3.00;99.90;;;;;;4990216;28;20260;-75
2022/01/21 10:41:45;;;;;;;13.20;4.43;;;3.10;99.90;;;;;;4990372;28;20202;-75
2022/01/21 10:44:15;;;;;;;10.18;3.90;;;3.10;99.90;;;;;;4990151;28;20537;-75
2022/01/21 10:46:49;;;;;;;9.68;4.38;;;2.60;99.90;;;;;;4988718;28;20207;-77
2022/01/21 10:49:16;;;;;;;9.23;3.92;;;2.40;99.90;;;;;;4991257;28;20679;-76
2022/01/21 10:51:49;;;;;;;9.07;4.78;;;2.50;99.90;;;;;;4990501;28;20183;-77
2022/01/21 10:54:20;;;;;;;13.55;4.78;;;2.80;99.90;;;;;;4989423;28;20238;-76
2022/01/21 10:57:07;;;;;;;8.77;3.55;;;2.90;99.90;;;;;;4972882;28;20534;-75
2022/01/21 10:59:55;;;;;;;8.68;3.42;;;2.80;99.90;;;;;;4990720;28;20271;-77
2022/01/21 11:02:46;;;;;;;14.23;3.63;;;2.90;99.90;;;;;;4988967;28;20215;-77
2022/01/21 11:05:31;;;;;;;8.60;3.33;;;3.00;99.90;;;;;;4989897;28;20205;-76
2022/01/21 11:08:07;;;;;;;7.18;3.78;;;3.10;99.90;;;;;;4989893;28;20179;-76
2022/01/21 11:10:54;;;;;;;10.70;3.85;;;3.20;99.90;;;;;;4989199;28;20228;-77
2022/01/21 11:13:19;;;;;;;10.38;3.33;;;3.10;99.90;;;;;;4989558;28;20193;-77
2022/01/21 11:16:04;;;;;;;8.97;3.27;;;3.10;99.90;;;;;;4989545;28;20215;-77
2022/01/21 11:18:31;;;;;;;8.90;3.80;;;3.00;99.90;;;;;;4989559;28;20206;-77
2022/01/21 11:21:04;;;;;;;10.88;3.67;;;2.90;99.90;;;;;;4989681;28;20201;-76
2022/01/21 11:23:32;;;;;;;15.07;4.57;;;2.70;99.90;;;;;;4989390;28;20188;-76
2022/01/21 11:26:01;;;;;;;13.00;3.80;;;2.60;99.90;;;;;;4989291;28;20207;-77
2022/01/21 11:28:49;;;;;;;11.25;3.63;;;2.50;99.90;;;;;;4990588;28;21024;-77
2022/01/21 11:31:18;;;;;;;9.65;3.33;;;2.50;99.90;;;;;;4988685;28;20222;-77
2022/01/21 11:33:43;;;;;;;12.95;5.13;;;2.50;99.90;;;;;;4987660;28;20198;-76
2022/01/21 11:36:09;;;;;;;15.33;3.77;;;2.50;99.90;;;;;;4989184;28;20208;-77
2022/01/21 11:38:38;;;;;;;11.50;3.60;;;2.60;99.90;;;;;;4989112;28;20178;-77
2022/01/21 11:41:08;;;;;;;8.80;3.63;;;2.60;99.90;;;;;;4989186;28;20186;-77
2022/01/21 11:43:36;;;;;;;8.57;3.55;;;2.60;99.90;;;;;;4971419;28;20287;-76
2022/01/21 11:46:19;;;;;;;14.27;3.67;;;2.50;99.90;;;;;;4989041;28;20718;-76
2022/01/21 11:48:52;;;;;;;16.17;3.85;;;2.50;99.90;;;;;;4987699;28;20674;-76
2022/01/21 11:51:26;;;;;;;11.93;4.20;;;2.40;99.90;;;;;;4990362;28;20207;-77
2022/01/21 11:53:56;;;;;;;11.38;4.30;;;2.30;99.90;;;;;;4990204;28;20197;-76
2022/01/21 11:57:08;;;;;;;15.27;4.35;;;2.20;99.90;;;;;;4990090;28;20206;-79
2022/01/21 11:59:43;;;;;;;12.82;4.57;;;2.20;99.90;;;;;;4979708;28;20281;-78
2022/01/21 12:02:14;;;;;;;14.23;4.30;;;2.10;99.90;;;;;;4989355;28;20180;-77
2022/01/21 12:04:49;;;;;;;10.32;4.63;;;2.10;99.90;;;;;;4988713;28;20202;-76
2022/01/21 12:07:34;;;;;;;13.55;4.38;;;2.10;99.90;;;;;;4987767;28;20642;-76
2022/01/21 12:10:05;;;;;;;15.52;5.05;;;2.20;99.90;;;;;;4989250;28;20333;-76
2022/01/21 12:12:48;;;;;;;12.80;4.60;;;2.20;99.90;;;;;;4988018;28;20190;-76
2022/01/21 12:15:55;;;;;;;16.75;5.68;;;2.20;99.90;;;;;;4989266;28;20202;-77
2022/01/21 12:18:39;;;;;;;10.65;4.82;;;2.30;99.90;;;;;;4988873;28;20200;-77
2022/01/21 12:21:19;;;;;;;13.02;5.15;;;2.40;99.90;;;;;;4988337;28;20197;-77
2022/01/21 12:23:45;;;;;;;9.20;5.22;;;2.50;99.90;;;;;;4986768;28;20191;-75
2022/01/21 12:26:12;;;;;;;6.85;5.22;;;2.50;99.90;;;;;;4987506;28;20261;-75
2022/01/21 12:28:58;;;;;;;12.07;4.30;;;2.70;99.90;;;;;;4989098;28;20199;-75
2022/01/21 12:31:55;;;;;;;11.70;4.45;;;2.60;99.90;;;;;;4984665;28;20235;-78
2022/01/21 12:34:21;;;;;;;13.18;3.70;;;2.60;99.90;;;;;;4988759;28;20269;-76
2022/01/21 12:36:54;;;;;;;18.30;3.87;;;2.50;99.90;;;;;;4988182;28;20275;-75
2022/01/21 12:39:41;;;;;;;12.88;3.65;;;2.50;99.90;;;;;;4988195;28;20215;-76
2022/01/21 12:42:23;;;;;;;11.35;4.00;;;2.60;99.90;;;;;;4986971;28;20254;-76
2022/01/21 12:45:17;;;;;;;11.15;4.20;;;2.60;99.90;;;;;;4988360;28;20222;-75
2022/01/21 12:47:45;;;;;;;10.35;3.88;;;2.60;99.90;;;;;;4988554;28;20191;-76
2022/01/21 12:50:33;;;;;;;6.85;3.78;;;2.60;99.90;;;;;;4988449;28;20222;-75
2022/01/21 12:58:28;;;;;;;7.78;4.68;;;2.40;99.90;;;;;;4988324;28;20236;-75
2022/01/21 13:01:03;;;;;;;9.23;3.72;;;2.50;99.90;;;;;;4988118;28;20217;-75
2022/01/21 13:03:43;;;;;;;16.80;4.13;;;2.30;99.90;;;;;;4988081;28;20186;-75
2022/01/21 13:06:11;;;;;;;10.68;4.25;;;2.20;99.90;;;;;;4990707;28;20226;-78
2022/01/21 13:09:02;;;;;;;22.27;6.82;;;2.20;99.90;;;;;;4989360;28;21089;-77
2022/01/21 13:11:29;;;;;;;12.30;3.95;;;2.20;99.90;;;;;;4991755;28;20240;-77
2022/01/21 13:17:18;;;;;;;10.30;3.10;;;2.20;99.90;;;;;;4982619;28;20327;-79
2022/01/21 13:19:50;;;;;;;15.43;3.92;;;2.20;99.90;;;;;;4978862;28;20198;-80
2022/01/21 13:22:22;;;;;;;12.90;3.58;;;2.30;99.90;;;;;;4981520;28;20204;-79
2022/01/21 13:24:51;;;;;;;6.05;3.63;;;2.20;99.90;;;;;;4995042;28;20685;-79
2022/01/21 13:27:17;;;;;;;7.13;2.55;;;2.30;99.90;;;;;;4995669;28;20710;-79
2022/01/21 13:29:43;;;;;;;4.63;2.80;;;2.30;99.90;;;;;;4962537;28;20338;-79
2022/01/21 13:32:08;;;;;;;4.05;2.17;;;2.50;99.90;;;;;;4995382;28;20179;-80
2022/01/21 13:34:39;;;;;;;5.30;1.80;;;2.50;99.90;;;;;;4995232;28;20678;-78
2022/01/21 13:37:07;;;;;;;8.25;1.40;;;2.80;99.90;;;;;;4996938;28;20698;-78
2022/01/21 13:39:39;;;;;;;4.40;1.38;;;2.70;99.90;;;;;;4996777;28;20657;-79
2022/01/21 13:42:12;;;;;;;3.75;1.60;;;2.80;99.90;;;;;;4979264;28;20186;-79
2022/01/21 13:45:01;;;;;;;3.15;1.80;;;2.80;99.90;;;;;;4994788;28;20216;-78
2022/01/21 13:47:45;;;;;;;4.53;1.85;;;2.70;99.90;;;;;;4994831;28;20183;-80
2022/01/21 13:50:13;;;;;;;6.28;2.30;;;2.70;99.90;;;;;;4995676;28;20220;-80